Time;durP1;ratioP1;P1;durP2;ratioP2;P2;SDS_P1;SDS_P2;PMS_P1;PMS_P2;Temp;Humidity;BMP_temperature;BMP_pressure;BME280_temperature;BME280_humidity;BME280_pressure;Samples;Min_cycle;Max_cycle;Signal;HPM_P1;HPM_P2
2023/12/14 00:01:46;;;;;;;;;;;;;;;;;;10331008;28;19929;-82
2023/12/14 00:06:46;;;;;;;;;;;;;;;;;;10295625;28;19953;-81
2023/12/14 00:11:47;;;;;;;;;;;;;;;;;;10319115;28;19906;-81
2023/12/14 00:16:49;;;;;;;;;;;;;;;;;;10334512;28;20368;-81
2023/12/14 00:21:49;;;;;;;;;;;;;;;;;;10310842;28;19940;-80
2023/12/14 00:26:49;;;;;;;;;;;;;;;;;;10264230;28;20355;-81
2023/12/14 00:31:50;;;;;;;;;;;;;;;;;;10284990;28;19934;-82
2023/12/14 00:36:50;;;;;;;;;;;;;;;;;;10283863;28;20501;-82
2023/12/14 00:41:51;;;;;;;;;;;;;;;;;;10263882;28;20518;-83
2023/12/14 00:46:51;;;;;;;;;;;;;;;;;;10283699;28;19930;-84
2023/12/14 00:51:51;;;;;;;;;;;;;;;;;;10280743;28;19922;-84
2023/12/14 00:56:51;;;;;;;;;;;;;;;;;;10250814;28;19968;-84
2023/12/14 01:01:52;;;;;;;;;;;;;;;;;;10254601;28;19934;-83
2023/12/14 01:06:52;;;;;;;;;;;;;;;;;;10287930;28;20053;-83
2023/12/14 01:11:55;;;;;;;;;;;;;;;;;;10294667;28;20663;-83
2023/12/14 01:16:58;;;;;;;;;;;;;;;;;;10284748;28;19922;-84
2023/12/14 01:22:00;;;;;;;;;;;;;;;;;;10262521;28;19929;-82
2023/12/14 01:27:00;;;;;;;;;;;;;;;;;;10225831;28;20092;-82
2023/12/14 01:32:00;;;;;;;;;;;;;;;;;;10261841;28;19930;-82
2023/12/14 01:37:00;;;;;;;;;;;;;;;;;;10271558;28;20712;-82
2023/12/14 01:42:02;;;;;;;;;;;;;;;;;;10274451;28;19942;-83
2023/12/14 01:47:05;;;;;;;;;;;;;;;;;;10296110;28;19971;-82
2023/12/14 01:52:05;;;;;;;;;;;;;;;;;;10313065;28;19932;-82
2023/12/14 01:57:05;;;;;;;;;;;;;;;;;;10298089;28;19929;-83
2023/12/14 02:02:07;;;;;;;;;;;;;;;;;;10376282;28;19922;-81
2023/12/14 02:07:07;;;;;;;;;;;;;;;;;;10354089;28;19921;-85
2023/12/14 02:12:10;;;;;;;;;;;;;;;;;;10338948;28;19975;-85
2023/12/14 02:17:11;;;;;;;;;;;;;;;;;;10362489;28;19925;-84
2023/12/14 02:22:11;;;;;;;;;;;;;;;;;;10335402;28;19933;-85
2023/12/14 02:27:12;;;;;;;;;;;;;;;;;;10332485;28;19926;-86
2023/12/14 02:32:13;;;;;;;;;;;;;;;;;;10339403;28;19926;-89
2023/12/14 02:37:13;;;;;;;;;;;;;;;;;;10292047;28;19967;-85
2023/12/14 02:42:15;;;;;;;;;;;;;;;;;;10349192;28;19960;-83
2023/12/14 02:47:15;;;;;;;;;;;;;;;;;;10312884;28;19925;-85
2023/12/14 02:52:15;;;;;;;;;;;;;;;;;;10349883;28;19926;-84
2023/12/14 02:57:16;;;;;;;;;;;;;;;;;;10310115;28;19969;-86
2023/12/14 03:02:16;;;;;;;;;;;;;;;;;;10341349;28;19932;-85
2023/12/14 03:07:17;;;;;;;;;;;;;;;;;;10333872;28;19921;-84
2023/12/14 03:12:17;;;;;;;;;;;;;;;;;;10341810;28;19922;-83
2023/12/14 03:17:17;;;;;;;;;;;;;;;;;;10333080;28;19921;-83
2023/12/14 03:22:19;;;;;;;;;;;;;;;;;;10345218;28;19936;-83
2023/12/14 03:27:20;;;;;;;;;;;;;;;;;;10340411;28;20385;-83
2023/12/14 03:32:20;;;;;;;;;;;;;;;;;;10355903;28;19928;-82
2023/12/14 03:37:21;;;;;;;;;;;;;;;;;;10334704;28;20432;-81
2023/12/14 03:42:22;;;;;;;;;;;;;;;;;;10342393;28;19933;-81
2023/12/14 03:47:22;;;;;;;;;;;;;;;;;;10336804;28;19929;-80
2023/12/14 03:52:22;;;;;;;;;;;;;;;;;;10332670;28;19921;-81
2023/12/14 03:57:23;;;;;;;;;;;;;;;;;;10329304;28;19906;-81
2023/12/14 04:02:23;;;;;;;;;;;;;;;;;;10356560;28;19945;-81
2023/12/14 04:07:23;;;;;;;;;;;;;;;;;;10326498;28;19948;-83
2023/12/14 04:12:23;;;;;;;;;;;;;;;;;;10331588;28;20379;-83
2023/12/14 04:17:24;;;;;;;;;;;;;;;;;;10310665;28;19949;-82
2023/12/14 04:22:24;;;;;;;;;;;;;;;;;;10320702;28;19934;-84
2023/12/14 04:27:28;;;;;;;;;;;;;;;;;;10339678;28;19933;-82
2023/12/14 04:32:29;;;;;;;;;;;;;;;;;;10315117;28;20016;-84
2023/12/14 04:37:37;;;;;;;;;;;;;;;;;;10336539;28;20009;-82
2023/12/14 04:42:37;;;;;;;;;;;;;;;;;;10347212;28;20389;-86
2023/12/14 04:47:38;;;;;;;;;;;;;;;;;;10335694;28;19925;-86
2023/12/14 04:52:38;;;;;;;;;;;;;;;;;;10360496;28;19918;-86
2023/12/14 04:57:38;;;;;;;;;;;;;;;;;;10350409;28;19948;-81
2023/12/14 05:02:38;;;;;;;;;;;;;;;;;;10399856;28;19930;-81
2023/12/14 05:07:39;;;;;;;;;;;;;;;;;;10378179;28;21452;-82
2023/12/14 05:12:40;;;;;;;;;;;;;;;;;;10398111;28;20121;-83
2023/12/14 05:17:43;;;;;;;;;;;;;;;;;;10385349;28;19906;-81
2023/12/14 05:22:44;;;;;;;;;;;;;;;;;;10379283;28;19925;-82
2023/12/14 05:27:44;;;;;;;;;;;;;;;;;;10383558;28;19925;-82
2023/12/14 05:32:44;;;;;;;;;;;;;;;;;;10327956;28;19929;-83
2023/12/14 05:37:45;;;;;;;;;;;;;;;;;;10292889;28;20395;-83
2023/12/14 05:42:46;;;;;;;;;;;;;;;;;;10330416;28;19991;-82
2023/12/14 05:47:46;;;;;;;;;;;;;;;;;;10311328;28;19956;-82
2023/12/14 05:52:50;;;;;;;;;;;;;;;;;;10337735;28;19953;-82
2023/12/14 05:57:51;;;;;;;;;;;;;;;;;;10303318;28;19921;-82
2023/12/14 06:02:51;;;;;;;;;;;;;;;;;;10351494;28;19941;-81
2023/12/14 06:07:53;;;;;;;;;;;;;;;;;;10335391;28;20554;-84
2023/12/14 06:12:53;;;;;;;;;;;;;;;;;;10299683;28;19922;-82
2023/12/14 06:17:54;;;;;;;;;;;;;;;;;;10324283;28;20366;-83
2023/12/14 06:22:56;;;;;;;;;;;;;;;;;;10350950;28;20008;-84
2023/12/14 06:27:59;;;;;;;;;;;;;;;;;;10367164;28;19949;-80
2023/12/14 06:33:04;;;;;;;;;;;;;;;;;;10339726;28;19921;-83
2023/12/14 06:38:04;;;;;;;;;;;;;;;;;;10320423;28;19918;-84
2023/12/14 06:43:06;;;;;;;;;;;;;;;;;;10415884;28;19949;-81
2023/12/14 06:48:10;;;;;;;;;;;;;;;;;;10390042;28;19972;-86
2023/12/14 06:53:15;;;;;;;;;;;;;;;;;;10331134;28;19997;-86
2023/12/14 06:58:24;;;;;;;;;;;;;;;;;;10334847;28;19926;-84
2023/12/14 07:03:25;;;;;;;;;;;;;;;;;;10332098;28;19930;-85
2023/12/14 07:08:28;;;;;;;;;;;;;;;;;;10298491;28;20417;-84
2023/12/14 07:13:28;;;;;;;;;;;;;;;;;;10309319;28;19972;-82
2023/12/14 07:18:29;;;;;;;;;;;;;;;;;;10335258;28;19922;-84
2023/12/14 07:23:31;;;;;;;;;;;;;;;;;;10297260;28;19925;-85
2023/12/14 07:28:40;;;;;;;;;;;;;;;;;;10538054;23;19964;-87
2023/12/14 07:33:50;;;;;;;;;;;;;;;;;;10353004;23;19993;-89
2023/12/14 07:38:51;;;;;;;;;;;;;;;;;;11164422;23;20040;-90
2023/12/14 07:43:59;;;;;;;;;;;;;;;;;;10278806;28;19914;-92
2023/12/14 07:54:54;;;;;;;;;;;;;;;;;;10270398;26;19931;-89
2023/12/14 07:59:54;;;;;;;;;;;;;;;;;;10501037;23;19913;-90
2023/12/14 08:16:27;;;;;;;;;;;;;;;;;;10414775;28;20201;-91
2023/12/14 08:22:16;;;;;;;;;;;;;;;;;;10316154;28;19954;-91
2023/12/14 08:28:08;;;;;;;;;;;;;;;;;;10267784;28;19922;-89
2023/12/14 08:33:36;;;;;;;;;;;;;;;;;;10288384;28;20240;-90
2023/12/14 08:39:01;;;;;;;;;;;;;;;;;;10228506;28;19915;-92
2023/12/14 09:00:27;;;;;;;;;;;;;;;;;;10487270;23;19921;-90
2023/12/14 09:11:05;;;;;;;;;;;;;;;;;;10362141;28;19923;-94
2023/12/14 09:16:29;;;;;;;;;;;;;;;;;;10336945;28;21513;-93
2023/12/14 09:21:41;;;;;;;;;;;;;;;;;;10326852;28;20372;-90
2023/12/14 09:26:48;;;;;;;;;;;;;;;;;;10303976;28;20154;-91
2023/12/14 09:31:54;;;;;;;;;;;;;;;;;;10299683;28;20444;-88
2023/12/14 09:42:59;;;;;;;;;;;;;;;;;;10315217;28;19914;-91
2023/12/14 09:48:01;;;;;;;;;;;;;;;;;;10325304;28;20489;-90
2023/12/14 09:53:03;;;;;;;;;;;;;;;;;;10352266;28;19916;-94
2023/12/14 09:58:05;;;;;;;;;;;;;;;;;;10322758;28;19926;-91
2023/12/14 10:03:20;;;;;;;;;;;;;;;;;;10310640;28;19957;-89
2023/12/14 10:08:47;;;;;;;;;;;;;;;;;;10317340;28;19932;-90
2023/12/14 10:13:48;;;;;;;;;;;;;;;;;;10327325;28;20014;-90
2023/12/14 10:18:59;;;;;;;;;;;;;;;;;;10297620;28;20291;-90
2023/12/14 10:24:08;;;;;;;;;;;;;;;;;;10312521;28;19963;-92
2023/12/14 10:29:16;;;;;;;;;;;;;;;;;;10275612;28;19972;-90
2023/12/14 10:34:43;;;;;;;;;;;;;;;;;;10310895;28;20379;-90
2023/12/14 10:45:02;;;;;;;;;;;;;;;;;;10353176;28;20443;-90
2023/12/14 10:50:08;;;;;;;;;;;;;;;;;;10297580;28;19921;-91
2023/12/14 10:55:22;;;;;;;;;;;;;;;;;;10360527;28;20308;-90
2023/12/14 11:00:30;;;;;;;;;;;;;;;;;;10302235;28;19930;-91
2023/12/14 11:10:43;;;;;;;;;;;;;;;;;;10361696;28;19930;-88
2023/12/14 11:20:59;;;;;;;;;;;;;;;;;;10358475;28;19930;-88
2023/12/14 11:26:03;;;;;;;;;;;;;;;;;;10282501;28;19949;-87
2023/12/14 11:31:16;;;;;;;;;;;;;;;;;;10283571;28;19925;-88
2023/12/14 11:36:39;;;;;;;;;;;;;;;;;;10347863;28;19927;-88
2023/12/14 11:41:39;;;;;;;;;;;;;;;;;;10263589;28;19930;-91
2023/12/14 11:46:50;;;;;;;;;;;;;;;;;;10312447;28;19914;-89
2023/12/14 11:57:08;;;;;;;;;;;;;;;;;;10353047;28;19973;-91
2023/12/14 12:07:16;;;;;;;;;;;;;;;;;;10287926;28;20090;-88
2023/12/14 12:12:17;;;;;;;;;;;;;;;;;;10301476;28;19968;-88
2023/12/14 12:17:21;;;;;;;;;;;;;;;;;;10342274;28;19941;-89
2023/12/14 12:22:21;;;;;;;;;;;;;;;;;;10306299;28;19922;-89
2023/12/14 12:27:31;;;;;;;;;;;;;;;;;;10372593;28;19925;-87
2023/12/14 12:32:32;;;;;;;;;;;;;;;;;;10277199;28;19929;-89
2023/12/14 12:37:34;;;;;;;;;;;;;;;;;;10312835;28;20368;-89
2023/12/14 12:42:35;;;;;;;;;;;;;;;;;;10363042;28;19977;-91
2023/12/14 12:52:52;;;;;;;;;;;;;;;;;;10376369;28;19965;-88
2023/12/14 12:58:04;;;;;;;;;;;;;;;;;;10383712;28;19917;-93
2023/12/14 13:03:10;;;;;;;;;;;;;;;;;;10351237;28;19927;-88
2023/12/14 13:08:11;;;;;;;;;;;;;;;;;;10347266;28;19933;-88
2023/12/14 13:13:16;;;;;;;;;;;;;;;;;;10340455;28;20450;-89
2023/12/14 13:18:16;;;;;;;;;;;;;;;;;;10336114;28;19948;-90
2023/12/14 13:34:46;;;;;;;;;;;;;;;;;;10315260;28;19930;-91
2023/12/14 13:39:49;;;;;;;;;;;;;;;;;;10247956;28;19920;-90
2023/12/14 13:44:59;;;;;;;;;;;;;;;;;;10315209;28;20275;-88
2023/12/14 13:50:19;;;;;;;;;;;;;;;;;;10292616;28;19922;-88
2023/12/14 13:55:35;;;;;;;;;;;;;;;;;;10307799;28;20436;-87
2023/12/14 14:00:38;;;;;;;;;;;;;;;;;;10293789;28;19975;-89
2023/12/14 14:05:59;;;;;;;;;;;;;;;;;;10285217;28;20476;-87
2023/12/14 14:11:12;;;;;;;;;;;;;;;;;;10287096;28;20733;-88
2023/12/14 14:16:25;;;;;;;;;;;;;;;;;;10314872;28;20066;-89
2023/12/14 14:21:30;;;;;;;;;;;;;;;;;;10309126;28;19922;-90
2023/12/14 14:26:32;;;;;;;;;;;;;;;;;;10299547;28;19950;-90
2023/12/14 14:31:34;;;;;;;;;;;;;;;;;;10308382;28;19905;-90
2023/12/14 14:36:37;;;;;;;;;;;;;;;;;;10297219;28;19916;-90
2023/12/14 14:41:38;;;;;;;;;;;;;;;;;;10322763;28;19938;-90
2023/12/14 14:46:39;;;;;;;;;;;;;;;;;;10292164;28;19920;-90
2023/12/14 14:51:51;;;;;;;;;;;;;;;;;;10340197;28;19910;-92
2023/12/14 14:57:02;;;;;;;;;;;;;;;;;;10322935;28;19914;-90
2023/12/14 15:02:03;;;;;;;;;;;;;;;;;;10325797;28;19913;-92
2023/12/14 15:07:28;;;;;;;;;;;;;;;;;;10236572;28;20077;-88
2023/12/14 15:18:01;;;;;;;;;;;;;;;;;;10696925;23;19949;-82
2023/12/14 15:23:05;;;;;;;;;;;;;;;;;;10366984;28;19913;-86
2023/12/14 15:33:09;;;;;;;;;;;;;;;;;;10339485;28;19958;-85
2023/12/14 15:38:10;;;;;;;;;;;;;;;;;;10867020;23;19929;-89
2023/12/14 15:43:15;;;;;;;;;;;;;;;;;;10334947;28;19914;-88
2023/12/14 15:54:30;;;;;;;;;;;;;;;;;;10339011;28;19938;-90
2023/12/14 16:00:21;;;;;;;;;;;;;;;;;;10298366;28;19930;-88
2023/12/14 16:05:30;;;;;;;;;;;;;;;;;;10274738;28;19937;-90
2023/12/14 16:11:02;;;;;;;;;;;;;;;;;;10351664;28;19944;-90
2023/12/14 16:26:44;;;;;;;;;;;;;;;;;;9492288;23;19941;-91
2023/12/14 16:31:49;;;;;;;;;;;;;;;;;;10563902;23;19968;-88
2023/12/14 16:36:54;;;;;;;;;;;;;;;;;;10397544;28;19937;-89
2023/12/14 16:41:54;;;;;;;;;;;;;;;;;;10340120;28;19914;-89
2023/12/14 16:57:51;;;;;;;;;;;;;;;;;;10238636;28;19942;-86
2023/12/14 17:02:52;;;;;;;;;;;;;;;;;;10267464;28;19926;-87
2023/12/14 17:07:54;;;;;;;;;;;;;;;;;;10272704;28;19918;-89
2023/12/14 17:29:10;;;;;;;;;;;;;;;;;;10356397;28;19930;-87
2023/12/14 17:34:12;;;;;;;;;;;;;;;;;;10383834;28;20001;-89
2023/12/14 17:39:13;;;;;;;;;;;;;;;;;;10562561;23;19929;-87
2023/12/14 17:44:15;;;;;;;;;;;;;;;;;;10366501;28;19929;-90
2023/12/14 17:49:20;;;;;;;;;;;;;;;;;;10335947;28;19965;-85
2023/12/14 17:54:40;;;;;;;;;;;;;;;;;;10369323;28;19924;-90
2023/12/14 17:59:42;;;;;;;;;;;;;;;;;;10397876;28;19917;-88
2023/12/14 18:04:44;;;;;;;;;;;;;;;;;;10393655;28;19932;-83
2023/12/14 18:09:44;;;;;;;;;;;;;;;;;;10376447;28;19926;-90
2023/12/14 18:14:44;;;;;;;;;;;;;;;;;;10309589;28;20032;-89
2023/12/14 18:19:45;;;;;;;;;;;;;;;;;;10345517;28;19922;-91
2023/12/14 18:24:45;;;;;;;;;;;;;;;;;;10350720;23;19913;-90
2023/12/14 18:35:36;;;;;;;;;;;;;;;;;;10962281;23;19939;-89
2023/12/14 18:40:43;;;;;;;;;;;;;;;;;;10384462;28;19929;-87
2023/12/14 18:51:24;;;;;;;;;;;;;;;;;;10225915;28;19923;-90
2023/12/14 18:56:30;;;;;;;;;;;;;;;;;;10313255;28;19922;-88
2023/12/14 19:07:58;;;;;;;;;;;;;;;;;;10466686;23;20024;-87
2023/12/14 19:13:16;;;;;;;;;;;;;;;;;;10292281;28;19992;-87
2023/12/14 19:18:17;;;;;;;;;;;;;;;;;;10477570;23;19972;-88
2023/12/14 19:29:01;;;;;;;;;;;;;;;;;;11040964;23;19977;-89
2023/12/14 19:55:29;;;;;;;;;;;;;;;;;;10431969;28;19921;-86
2023/12/14 20:06:05;;;;;;;;;;;;;;;;;;10294095;28;19914;-87
2023/12/14 20:43:15;;;;;;;;;;;;;;;;;;10284551;28;19930;-88
2023/12/14 20:53:33;;;;;;;;;;;;;;;;;;10315094;28;19926;-90
2023/12/14 20:58:35;;;;;;;;;;;;;;;;;;10295592;28;19993;-88
2023/12/14 21:03:38;;;;;;;;;;;;;;;;;;10276741;28;20041;-92
2023/12/14 21:08:40;;;;;;;;;;;;;;;;;;10311127;28;19920;-88
2023/12/14 21:13:50;;;;;;;;;;;;;;;;;;10249530;28;19945;-90
2023/12/14 21:18:55;;;;;;;;;;;;;;;;;;10251625;28;19914;-92
2023/12/14 21:24:37;;;;;;;;;;;;;;;;;;10242354;28;19932;-92
2023/12/14 21:29:42;;;;;;;;;;;;;;;;;;10209975;28;19927;-91
2023/12/14 21:40:03;;;;;;;;;;;;;;;;;;10275473;28;19965;-92
2023/12/14 21:45:16;;;;;;;;;;;;;;;;;;10232532;28;20415;-89
2023/12/14 21:50:35;;;;;;;;;;;;;;;;;;10232078;28;19906;-92
2023/12/14 21:55:41;;;;;;;;;;;;;;;;;;10253858;28;19975;-92
2023/12/14 22:00:45;;;;;;;;;;;;;;;;;;10257045;28;19937;-92
2023/12/14 22:06:26;;;;;;;;;;;;;;;;;;10258382;28;19946;-90
2023/12/14 22:11:28;;;;;;;;;;;;;;;;;;10257555;28;19929;-93
2023/12/14 22:16:57;;;;;;;;;;;;;;;;;;10197103;28;19926;-91
2023/12/14 22:22:10;;;;;;;;;;;;;;;;;;10317836;23;19914;-93
2023/12/14 22:27:54;;;;;;;;;;;;;;;;;;10280761;28;19981;-90
2023/12/14 22:38:47;;;;;;;;;;;;;;;;;;10396132;23;19976;-89
2023/12/14 22:43:56;;;;;;;;;;;;;;;;;;10268575;28;20030;-87
2023/12/14 22:49:34;;;;;;;;;;;;;;;;;;10699557;23;19919;-91
2023/12/14 23:05:44;;;;;;;;;;;;;;;;;;10352068;28;19934;-89
2023/12/14 23:15:58;;;;;;;;;;;;;;;;;;10302287;28;19914;-90
2023/12/14 23:21:05;;;;;;;;;;;;;;;;;;10601472;23;19966;-90
2023/12/14 23:26:08;;;;;;;;;;;;;;;;;;10345897;28;19921;-88
2023/12/14 23:42:28;;;;;;;;;;;;;;;;;;10324168;28;19978;-92
2023/12/14 23:47:56;;;;;;;;;;;;;;;;;;10280409;28;19924;-90
2023/12/14 23:53:15;;;;;;;;;;;;;;;;;;10292116;28;20000;-90
2023/12/14 23:58:16;;;;;;;;;;;;;;;;;;10252518;28;20466;-89
